Time;durP1;ratioP1;P1;durP2;ratioP2;P2;SDS_P1;SDS_P2;PMS_P1;PMS_P2;Temp;Humidity;BMP_temperature;BMP_pressure;BME280_temperature;BME280_humidity;BME280_pressure;Samples;Min_cycle;Max_cycle;Signal;HPM_P1;HPM_P2
2023/06/23 00:01:21;;;;;;;7.83;6.37;;;;;;;;;;5000418;28;20202;-96
2023/06/23 00:03:50;;;;;;;8.20;6.57;;;;;;;;;;5000793;28;20287;-96
2023/06/23 00:06:18;;;;;;;8.40;7.30;;;;;;;;;;5000145;28;20207;-96
2023/06/23 00:08:47;;;;;;;10.53;6.80;;;;;;;;;;5000309;28;20206;-95
2023/06/23 00:11:19;;;;;;;10.20;6.63;;;;;;;;;;5001601;28;20201;-96
2023/06/23 00:13:49;;;;;;;8.70;7.10;;;;;;;;;;5002236;28;20627;-96
2023/06/23 00:16:18;;;;;;;9.77;6.80;;;;;;;;;;5002741;28;20198;-96
2023/06/23 00:18:50;;;;;;;9.43;7.50;;;;;;;;;;5001747;28;20572;-96
2023/06/23 00:21:20;;;;;;;9.97;6.80;;;;;;;;;;5002199;28;20202;-96
2023/06/23 00:23:49;;;;;;;10.70;7.40;;;;;;;;;;5002319;28;20714;-96
2023/06/23 00:26:18;;;;;;;9.63;7.40;;;;;;;;;;5002682;28;20668;-96
2023/06/23 00:28:53;;;;;;;11.40;8.23;;;;;;;;;;5002155;28;20206;-96
2023/06/23 00:31:36;;;;;;;10.17;7.63;;;;;;;;;;5004039;28;20238;-96
2023/06/23 00:34:06;;;;;;;10.40;7.73;;;;;;;;;;5000059;28;20209;-96
2023/06/23 00:36:33;;;;;;;10.70;7.97;;;;;;;;;;4999757;28;20198;-94
2023/06/23 00:39:02;;;;;;;11.63;8.00;;;;;;;;;;4998889;28;20209;-96
2023/06/23 00:41:30;;;;;;;10.70;8.20;;;;;;;;;;4999247;28;20202;-95
2023/06/23 00:43:59;;;;;;;9.83;8.07;;;;;;;;;;4997859;28;20265;-95
2023/06/23 00:46:27;;;;;;;11.87;7.97;;;;;;;;;;4998823;28;20201;-95
2023/06/23 00:48:55;;;;;;;11.03;8.50;;;;;;;;;;4999061;28;20210;-94
2023/06/23 00:51:25;;;;;;;11.77;8.33;;;;;;;;;;4999166;28;20205;-95
2023/06/23 00:53:54;;;;;;;13.10;8.47;;;;;;;;;;4988529;28;20205;-95
2023/06/23 00:56:22;;;;;;;12.23;8.93;;;;;;;;;;4978750;28;20233;-94
2023/06/23 00:58:50;;;;;;;11.97;8.83;;;;;;;;;;4979097;28;20199;-95
2023/06/23 01:01:17;;;;;;;11.17;8.90;;;;;;;;;;4978968;28;20230;-95
2023/06/23 01:03:44;;;;;;;11.87;9.00;;;;;;;;;;4978403;28;20314;-92
2023/06/23 01:06:16;;;;;;;11.40;8.60;;;;;;;;;;4978935;28;20194;-93
2023/06/23 01:08:47;;;;;;;13.70;9.67;;;;;;;;;;4978577;28;20226;-93
2023/06/23 01:11:18;;;;;;;15.13;9.70;;;;;;;;;;4978653;28;20210;-94
2023/06/23 01:13:49;;;;;;;13.27;9.20;;;;;;;;;;4979005;28;20218;-94
2023/06/23 01:16:18;;;;;;;13.77;10.10;;;;;;;;;;4978297;28;20226;-94
2023/06/23 01:18:49;;;;;;;14.83;9.40;;;;;;;;;;4978297;28;20205;-94
2023/06/23 01:21:19;;;;;;;14.10;9.43;;;;;;;;;;4978170;28;20262;-93
2023/06/23 01:24:01;;;;;;;15.87;10.10;;;;;;;;;;4978328;28;20232;-93
2023/06/23 01:26:38;;;;;;;14.27;10.30;;;;;;;;;;4973967;28;20289;-93
2023/06/23 01:29:08;;;;;;;12.77;9.57;;;;;;;;;;4960276;28;20575;-92
2023/06/23 01:31:38;;;;;;;14.10;9.50;;;;;;;;;;4957673;28;20234;-93
2023/06/23 01:34:08;;;;;;;15.00;9.60;;;;;;;;;;4957961;28;20286;-92
2023/06/23 01:36:39;;;;;;;14.30;9.70;;;;;;;;;;4958350;28;20652;-94
2023/06/23 01:39:08;;;;;;;15.50;10.33;;;;;;;;;;4959097;28;20191;-94
2023/06/23 01:41:40;;;;;;;17.17;11.37;;;;;;;;;;4959569;28;20675;-95
2023/06/23 01:44:13;;;;;;;14.30;10.50;;;;;;;;;;4959039;28;20239;-94
2023/06/23 01:46:42;;;;;;;16.13;10.80;;;;;;;;;;4958493;28;20324;-93
2023/06/23 01:49:12;;;;;;;14.40;9.80;;;;;;;;;;4958999;28;20203;-93
2023/06/23 01:51:42;;;;;;;16.40;10.13;;;;;;;;;;4958703;28;20205;-94
2023/06/23 01:54:10;;;;;;;18.20;10.43;;;;;;;;;;4960823;28;20230;-93
2023/06/23 01:56:38;;;;;;;16.27;10.60;;;;;;;;;;4967957;28;20254;-93
2023/06/23 01:59:07;;;;;;;14.83;10.30;;;;;;;;;;4967756;28;20307;-93
2023/06/23 02:01:35;;;;;;;17.00;10.77;;;;;;;;;;4957491;28;20724;-92
2023/06/23 02:04:03;;;;;;;18.10;11.00;;;;;;;;;;4957796;28;20751;-92
2023/06/23 02:06:31;;;;;;;16.93;11.23;;;;;;;;;;4957858;28;20211;-94
2023/06/23 02:08:59;;;;;;;18.40;11.00;;;;;;;;;;4957370;28;20218;-92
2023/06/23 02:11:28;;;;;;;22.13;12.60;;;;;;;;;;4957349;28;20210;-92
2023/06/23 02:13:57;;;;;;;18.97;11.63;;;;;;;;;;4957777;28;20278;-93
2023/06/23 02:16:25;;;;;;;22.50;12.20;;;;;;;;;;4957681;28;20199;-91
2023/06/23 02:18:54;;;;;;;19.10;13.00;;;;;;;;;;4957421;28;20238;-91
2023/06/23 02:21:22;;;;;;;26.77;13.63;;;;;;;;;;4957177;28;20195;-94
2023/06/23 02:23:50;;;;;;;39.27;14.80;;;;;;;;;;4957379;28;20775;-92
2023/06/23 02:26:17;;;;;;;42.83;14.37;;;;;;;;;;4957202;28;20259;-92
2023/06/23 02:28:49;;;;;;;33.03;14.57;;;;;;;;;;4957282;28;20187;-93
2023/06/23 02:31:17;;;;;;;32.30;14.43;;;;;;;;;;4957397;28;20250;-93
2023/06/23 02:33:45;;;;;;;45.70;15.00;;;;;;;;;;4957565;28;20222;-93
2023/06/23 02:36:15;;;;;;;29.00;14.53;;;;;;;;;;4957412;28;20313;-92
2023/06/23 02:38:44;;;;;;;32.37;14.73;;;;;;;;;;4956995;28;20203;-93
2023/06/23 02:41:13;;;;;;;28.20;13.10;;;;;;;;;;4957026;28;20222;-92
2023/06/23 02:43:42;;;;;;;30.10;13.80;;;;;;;;;;4957091;28;20195;-92
2023/06/23 02:46:12;;;;;;;31.73;13.60;;;;;;;;;;4958023;28;20199;-92
2023/06/23 02:48:41;;;;;;;30.13;13.13;;;;;;;;;;4957582;28;20722;-92
2023/06/23 02:51:10;;;;;;;30.03;13.47;;;;;;;;;;4957306;28;20234;-92
2023/06/23 02:53:40;;;;;;;29.57;13.50;;;;;;;;;;4957215;28;20286;-93
2023/06/23 02:56:08;;;;;;;26.13;13.57;;;;;;;;;;4957141;28;20668;-92
2023/06/23 02:58:36;;;;;;;25.03;13.10;;;;;;;;;;4957389;28;20205;-93
2023/06/23 03:01:04;;;;;;;23.13;11.90;;;;;;;;;;4957288;28;20219;-93
2023/06/23 03:03:33;;;;;;;24.80;12.27;;;;;;;;;;4957079;28;20624;-93
2023/06/23 03:06:00;;;;;;;20.70;11.70;;;;;;;;;;4958349;28;20250;-92
2023/06/23 03:08:28;;;;;;;25.43;11.70;;;;;;;;;;4975345;28;20266;-92
2023/06/23 03:10:56;;;;;;;24.33;12.40;;;;;;;;;;4973980;28;20199;-92
2023/06/23 03:13:24;;;;;;;23.67;12.73;;;;;;;;;;4963909;28;20219;-93
2023/06/23 03:15:55;;;;;;;27.07;12.40;;;;;;;;;;4972917;28;20207;-93
2023/06/23 03:18:24;;;;;;;30.57;12.27;;;;;;;;;;4980380;28;20195;-93
2023/06/23 03:20:52;;;;;;;34.77;12.53;;;;;;;;;;4980152;28;20293;-93
2023/06/23 03:23:20;;;;;;;27.30;13.30;;;;;;;;;;4979982;28;20194;-92
2023/06/23 03:25:48;;;;;;;32.27;12.00;;;;;;;;;;4979309;28;20273;-93
2023/06/23 03:28:18;;;;;;;29.53;12.83;;;;;;;;;;4978896;28;20224;-92
2023/06/23 03:30:47;;;;;;;31.23;13.20;;;;;;;;;;4979615;28;20318;-92
2023/06/23 03:33:16;;;;;;;26.10;12.30;;;;;;;;;;4979776;28;20680;-92
2023/06/23 03:35:43;;;;;;;30.20;12.63;;;;;;;;;;4979895;28;20293;-92
2023/06/23 03:38:12;;;;;;;35.43;12.43;;;;;;;;;;4979600;28;20660;-92
2023/06/23 03:40:41;;;;;;;33.90;13.27;;;;;;;;;;4979437;28;20727;-93
2023/06/23 03:43:12;;;;;;;33.17;13.73;;;;;;;;;;4978608;28;20283;-92
2023/06/23 03:45:43;;;;;;;27.53;13.10;;;;;;;;;;4979282;28;20309;-91
2023/06/23 03:48:11;;;;;;;29.40;14.07;;;;;;;;;;4978915;28;20587;-92
2023/06/23 03:50:39;;;;;;;31.27;14.33;;;;;;;;;;4960144;28;20222;-92
2023/06/23 03:53:07;;;;;;;32.40;13.70;;;;;;;;;;4959866;28;20652;-92
2023/06/23 03:55:35;;;;;;;26.77;13.90;;;;;;;;;;4959729;28;20210;-91
2023/06/23 03:58:03;;;;;;;24.53;13.30;;;;;;;;;;4958365;28;20274;-91
2023/06/23 04:00:32;;;;;;;26.00;13.17;;;;;;;;;;4959674;28;20199;-91
2023/06/23 04:03:01;;;;;;;25.53;12.63;;;;;;;;;;4959430;28;20281;-92
2023/06/23 04:05:31;;;;;;;22.47;12.80;;;;;;;;;;4959039;28;20313;-91
2023/06/23 04:08:00;;;;;;;24.23;13.20;;;;;;;;;;4959617;28;20200;-92
2023/06/23 04:10:27;;;;;;;23.70;12.80;;;;;;;;;;4959130;28;20198;-93
2023/06/23 04:12:55;;;;;;;25.43;12.07;;;;;;;;;;4959617;28;20223;-92
2023/06/23 04:15:24;;;;;;;24.33;12.53;;;;;;;;;;4968388;28;20213;-91
2023/06/23 04:17:52;;;;;;;24.10;13.67;;;;;;;;;;4977273;28;20241;-92
2023/06/23 04:20:22;;;;;;;23.33;13.67;;;;;;;;;;4978117;28;20286;-91
2023/06/23 04:22:50;;;;;;;25.67;13.77;;;;;;;;;;4978231;28;20282;-92
2023/06/23 04:25:18;;;;;;;25.10;13.70;;;;;;;;;;4978053;28;20254;-91
2023/06/23 04:27:45;;;;;;;25.27;13.90;;;;;;;;;;4978685;28;20198;-92
2023/06/23 04:30:13;;;;;;;25.17;14.40;;;;;;;;;;4978461;28;20294;-93
2023/06/23 04:32:40;;;;;;;27.17;14.83;;;;;;;;;;4978181;28;20234;-92
2023/06/23 04:35:08;;;;;;;26.73;13.63;;;;;;;;;;4978171;28;20195;-92
2023/06/23 04:37:41;;;;;;;24.77;14.20;;;;;;;;;;4978995;28;21172;-92
2023/06/23 04:40:10;;;;;;;23.87;12.93;;;;;;;;;;4978293;28;20236;-93
2023/06/23 04:42:42;;;;;;;25.03;13.37;;;;;;;;;;4978181;28;20281;-91
2023/06/23 04:45:10;;;;;;;23.70;13.00;;;;;;;;;;4977981;28;20228;-93
2023/06/23 04:47:39;;;;;;;25.23;13.43;;;;;;;;;;4980117;28;20222;-91
2023/06/23 04:50:09;;;;;;;23.80;12.57;;;;;;;;;;4989684;28;20190;-95
2023/06/23 04:52:37;;;;;;;19.87;11.57;;;;;;;;;;4985256;28;20226;-94
2023/06/23 04:55:08;;;;;;;21.20;11.80;;;;;;;;;;4979437;28;20297;-93
2023/06/23 04:57:38;;;;;;;18.93;10.67;;;;;;;;;;4978624;28;20253;-94
2023/06/23 05:00:07;;;;;;;20.47;11.37;;;;;;;;;;4979185;28;20199;-94
2023/06/23 05:02:35;;;;;;;18.47;10.70;;;;;;;;;;4980836;28;20226;-96
2023/06/23 05:05:03;;;;;;;19.73;11.53;;;;;;;;;;4981799;28;20314;-94
2023/06/23 05:07:31;;;;;;;20.60;11.57;;;;;;;;;;4981175;28;20214;-96
2023/06/23 05:10:00;;;;;;;19.37;11.00;;;;;;;;;;4985348;28;20175;-94
2023/06/23 05:25:23;;;;;;;18.67;11.57;;;;;;;;;;4921071;29;20232;-95
2023/06/23 05:27:57;;;;;;;19.63;11.43;;;;;;;;;;4926467;29;20200;-95
2023/06/23 05:30:25;;;;;;;17.73;11.23;;;;;;;;;;4925890;29;20649;-95
2023/06/23 05:32:54;;;;;;;22.10;11.87;;;;;;;;;;4928579;29;20243;-96
2023/06/23 05:35:22;;;;;;;20.30;11.80;;;;;;;;;;4924779;29;20277;-95
2023/06/23 05:37:51;;;;;;;20.80;11.77;;;;;;;;;;4919832;29;20315;-93
2023/06/23 05:40:19;;;;;;;19.90;12.20;;;;;;;;;;4920651;29;20320;-96
2023/06/23 05:45:16;;;;;;;18.93;11.73;;;;;;;;;;4939364;29;20271;-96
2023/06/23 05:47:44;;;;;;;20.93;12.77;;;;;;;;;;4940530;29;20200;-95
2023/06/23 05:50:16;;;;;;;18.83;11.20;;;;;;;;;;4942047;29;20705;-95
2023/06/23 05:52:48;;;;;;;17.27;11.17;;;;;;;;;;4942399;29;20192;-96
2023/06/23 05:55:15;;;;;;;18.70;11.60;;;;;;;;;;4940801;29;20264;-95
2023/06/23 05:57:44;;;;;;;19.10;11.13;;;;;;;;;;4941343;29;20258;-96
2023/06/23 06:00:13;;;;;;;18.27;11.27;;;;;;;;;;4941786;29;20204;-95
2023/06/23 06:02:44;;;;;;;17.73;11.83;;;;;;;;;;4940891;29;20211;-96
2023/06/23 06:05:12;;;;;;;16.80;10.70;;;;;;;;;;4941634;29;20314;-95
2023/06/23 06:07:40;;;;;;;17.60;11.70;;;;;;;;;;4939907;29;20207;-96
2023/06/23 06:10:09;;;;;;;16.43;10.23;;;;;;;;;;4943581;29;20207;-92
2023/06/23 06:12:37;;;;;;;16.23;10.87;;;;;;;;;;4956013;29;20215;-92
2023/06/23 06:15:05;;;;;;;17.40;10.47;;;;;;;;;;4941865;29;20263;-92
2023/06/23 06:17:33;;;;;;;19.73;11.33;;;;;;;;;;4938459;29;20208;-93
2023/06/23 06:20:03;;;;;;;17.80;11.57;;;;;;;;;;4939072;29;20274;-94
2023/06/23 06:22:31;;;;;;;15.43;10.90;;;;;;;;;;4938924;29;20208;-94
2023/06/23 06:24:59;;;;;;;16.73;11.20;;;;;;;;;;4939504;29;20593;-93
2023/06/23 06:27:28;;;;;;;15.33;10.57;;;;;;;;;;4939943;29;20424;-96
2023/06/23 06:29:57;;;;;;;14.07;10.00;;;;;;;;;;4940709;29;20669;-94
2023/06/23 06:32:29;;;;;;;14.57;9.70;;;;;;;;;;4939068;29;20204;-94
2023/06/23 06:34:57;;;;;;;13.33;9.63;;;;;;;;;;4937944;29;20195;-93
2023/06/23 06:37:26;;;;;;;14.88;9.07;;;;;;;;;;4938379;29;20239;-92
2023/06/23 06:39:54;;;;;;;13.37;9.17;;;;;;;;;;4938307;29;20278;-92
2023/06/23 06:42:21;;;;;;;11.43;8.50;;;;;;;;;;4940586;29;20255;-94
2023/06/23 06:44:48;;;;;;;14.00;9.30;;;;;;;;;;4943115;29;20235;-93
2023/06/23 06:47:17;;;;;;;14.57;9.80;;;;;;;;;;4944035;29;20196;-95
2023/06/23 06:49:44;;;;;;;12.68;9.45;;;;;;;;;;4943514;29;20188;-95
2023/06/23 06:52:12;;;;;;;11.90;9.07;;;;;;;;;;4948670;29;20616;-94
2023/06/23 06:57:14;;;;;;;11.40;8.88;;;;;;;;;;4928419;29;20244;-96
2023/06/23 06:59:41;;;;;;;14.70;9.13;;;;;;;;;;4931886;29;20196;-96
2023/06/23 07:02:10;;;;;;;11.82;8.88;;;;;;;;;;5325677;23;20250;-96
2023/06/23 07:04:38;;;;;;;11.52;8.38;;;;;;;;;;4992318;28;20179;-96
2023/06/23 07:07:06;;;;;;;10.02;7.97;;;;;;;;;;4998198;28;20225;-95
2023/06/23 07:09:33;;;;;;;9.48;7.70;;;;;;;;;;5000073;28;20198;-95
2023/06/23 07:12:00;;;;;;;8.55;7.22;;;;;;;;;;4999382;28;20218;-96
2023/06/23 07:14:29;;;;;;;8.57;6.90;;;;;;;;;;4993460;28;20199;-96
2023/06/23 07:16:56;;;;;;;7.97;6.43;;;;;;;;;;4988499;28;20621;-95
2023/06/23 07:19:23;;;;;;;7.97;6.20;;;;;;;;;;4987605;28;20190;-96
2023/06/23 07:21:51;;;;;;;7.93;7.07;;;;;;;;;;4991455;28;20191;-96
2023/06/23 07:24:18;;;;;;;8.25;6.20;;;;;;;;;;4986258;28;20231;-96
2023/06/23 07:26:46;;;;;;;7.15;5.38;;;;;;;;;;4986475;28;20237;-94
2023/06/23 07:29:17;;;;;;;7.80;6.00;;;;;;;;;;4987221;28;20214;-96
2023/06/23 07:31:48;;;;;;;6.43;5.47;;;;;;;;;;4987138;28;20269;-96
2023/06/23 07:34:16;;;;;;;7.75;6.45;;;;;;;;;;4988200;28;20203;-96
2023/06/23 07:36:53;;;;;;;6.97;6.28;;;;;;;;;;4983946;28;20206;-96
2023/06/23 07:39:20;;;;;;;7.20;5.60;;;;;;;;;;4981548;28;20206;-93
2023/06/23 07:41:49;;;;;;;7.57;5.93;;;;;;;;;;4984111;28;20202;-96
2023/06/23 07:44:21;;;;;;;7.53;6.70;;;;;;;;;;4988972;28;20210;-95
2023/06/23 07:55:35;;;;;;;5.72;5.13;;;;;;;;;;4992281;28;20218;-96
2023/06/23 07:58:20;;;;;;;5.47;4.97;;;;;;;;;;4985974;28;20201;-95
2023/06/23 08:00:48;;;;;;;6.85;5.00;;;;;;;;;;4982695;28;20285;-96
2023/06/23 08:03:15;;;;;;;5.93;4.57;;;;;;;;;;4979737;28;20245;-95
2023/06/23 08:05:45;;;;;;;6.15;5.03;;;;;;;;;;4980106;28;20234;-94
2023/06/23 08:08:12;;;;;;;6.88;6.05;;;;;;;;;;4979287;28;20194;-94
2023/06/23 08:10:40;;;;;;;6.43;5.82;;;;;;;;;;4981075;28;20203;-95
2023/06/23 08:13:09;;;;;;;5.97;5.13;;;;;;;;;;4981279;28;20195;-96
2023/06/23 08:15:37;;;;;;;6.25;5.65;;;;;;;;;;4985607;28;20206;-95
2023/06/23 08:18:04;;;;;;;5.75;5.22;;;;;;;;;;4976487;28;20214;-90
2023/06/23 08:20:31;;;;;;;6.18;4.82;;;;;;;;;;4977581;28;20214;-90
2023/06/23 08:23:01;;;;;;;6.55;5.90;;;;;;;;;;4977348;28;20230;-90
2023/06/23 08:25:28;;;;;;;5.70;5.05;;;;;;;;;;4977339;28;20249;-90
2023/06/23 08:27:55;;;;;;;5.40;4.70;;;;;;;;;;4977233;28;20286;-90
2023/06/23 08:30:27;;;;;;;5.20;4.70;;;;;;;;;;4977194;28;20301;-90
2023/06/23 08:32:54;;;;;;;5.45;4.63;;;;;;;;;;4976905;28;20218;-89
2023/06/23 08:35:21;;;;;;;5.57;4.22;;;;;;;;;;4976900;28;20362;-88
2023/06/23 08:37:48;;;;;;;5.25;4.75;;;;;;;;;;4976702;28;20290;-89
2023/06/23 08:40:17;;;;;;;9.50;4.70;;;;;;;;;;4976919;28;20221;-89
2023/06/23 08:42:44;;;;;;;12.00;4.82;;;;;;;;;;4977112;28;20649;-90
2023/06/23 08:45:13;;;;;;;4.82;4.32;;;;;;;;;;4976694;28;20222;-89
2023/06/23 08:47:43;;;;;;;5.82;4.47;;;;;;;;;;4976447;28;20599;-88
2023/06/23 08:50:11;;;;;;;4.40;4.00;;;;;;;;;;4976386;28;20237;-90
2023/06/23 08:52:38;;;;;;;5.57;4.25;;;;;;;;;;4976340;28;20223;-88
2023/06/23 08:55:05;;;;;;;4.57;3.80;;;;;;;;;;4976218;28;20242;-88
2023/06/23 08:57:34;;;;;;;4.80;4.30;;;;;;;;;;4976061;28;20241;-89
2023/06/23 09:00:02;;;;;;;5.45;4.28;;;;;;;;;;4976116;28;20205;-88
2023/06/23 09:02:29;;;;;;;5.63;4.00;;;;;;;;;;4974940;28;20230;-88
2023/06/23 09:04:56;;;;;;;4.63;4.13;;;;;;;;;;4975090;28;20290;-88
2023/06/23 09:07:24;;;;;;;4.30;3.90;;;;;;;;;;4975478;28;20262;-88
2023/06/23 09:09:52;;;;;;;5.43;3.63;;;;;;;;;;4975389;28;20612;-87
2023/06/23 09:12:21;;;;;;;3.83;3.00;;;;;;;;;;4975129;28;20289;-87
2023/06/23 09:14:52;;;;;;;3.28;2.85;;;;;;;;;;4975210;28;20210;-88
2023/06/23 09:17:19;;;;;;;3.47;2.53;;;;;;;;;;4975412;28;20718;-87
2023/06/23 09:19:49;;;;;;;3.08;2.78;;;;;;;;;;4975096;28;20273;-89
2023/06/23 09:22:18;;;;;;;3.50;3.20;;;;;;;;;;4975499;28;20229;-87
2023/06/23 09:24:46;;;;;;;3.40;3.10;;;;;;;;;;4975048;28;20195;-88
2023/06/23 09:27:13;;;;;;;2.83;2.40;;;;;;;;;;4975432;28;20225;-88
2023/06/23 09:29:41;;;;;;;2.95;2.50;;;;;;;;;;4974449;28;20337;-87
2023/06/23 09:32:09;;;;;;;2.70;2.10;;;;;;;;;;4975259;28;20213;-87
2023/06/23 09:34:38;;;;;;;2.88;2.45;;;;;;;;;;4974819;28;20205;-87
2023/06/23 09:37:09;;;;;;;4.03;2.08;;;;;;;;;;4973464;28;20648;-88
2023/06/23 09:39:36;;;;;;;3.50;2.08;;;;;;;;;;4973963;28;20746;-88
2023/06/23 09:42:06;;;;;;;2.85;1.77;;;;;;;;;;4974316;28;20577;-87
2023/06/23 09:44:34;;;;;;;2.20;1.98;;;;;;;;;;4962087;28;20643;-89
2023/06/23 09:47:01;;;;;;;1.67;1.52;;;;;;;;;;4973390;28;20240;-86
2023/06/23 09:49:30;;;;;;;1.85;1.60;;;;;;;;;;4965053;28;20199;-87
2023/06/23 09:51:57;;;;;;;1.70;1.60;;;;;;;;;;4954303;29;20299;-87
2023/06/23 09:54:35;;;;;;;2.17;1.67;;;;;;;;;;4954474;29;20223;-87
2023/06/23 09:57:07;;;;;;;2.33;1.75;;;;;;;;;;4954197;28;20588;-87
2023/06/23 09:59:34;;;;;;;1.70;1.60;;;;;;;;;;4953767;28;20680;-86
2023/06/23 10:02:01;;;;;;;2.30;1.90;;;;;;;;;;4953748;28;20270;-86
2023/06/23 10:04:30;;;;;;;2.50;1.70;;;;;;;;;;4953723;28;20203;-85
2023/06/23 10:06:58;;;;;;;2.00;1.80;;;;;;;;;;4966110;28;20718;-86
2023/06/23 10:09:26;;;;;;;2.17;1.80;;;;;;;;;;4972223;28;20292;-86
2023/06/23 10:11:53;;;;;;;1.77;1.67;;;;;;;;;;4972869;28;20233;-85
2023/06/23 10:14:21;;;;;;;2.78;1.95;;;;;;;;;;4972461;28;20229;-85
2023/06/23 10:16:53;;;;;;;1.85;1.50;;;;;;;;;;4953431;28;20253;-86
2023/06/23 10:19:20;;;;;;;1.55;1.45;;;;;;;;;;4953660;28;20291;-86
2023/06/23 10:21:49;;;;;;;1.65;1.55;;;;;;;;;;4954290;28;20195;-89
2023/06/23 10:24:19;;;;;;;1.80;1.70;;;;;;;;;;4972809;28;20239;-84
2023/06/23 10:26:47;;;;;;;2.35;1.75;;;;;;;;;;4972527;28;20232;-82
2023/06/23 10:29:15;;;;;;;2.00;1.80;;;;;;;;;;4964327;28;20206;-85
2023/06/23 10:31:43;;;;;;;2.38;1.92;;;;;;;;;;4972584;28;20264;-84
2023/06/23 10:34:12;;;;;;;1.80;1.70;;;;;;;;;;4971987;28;20244;-84
2023/06/23 10:36:41;;;;;;;2.17;1.98;;;;;;;;;;4973829;28;20228;-85
2023/06/23 10:39:11;;;;;;;2.00;1.90;;;;;;;;;;4972543;28;20248;-86
2023/06/23 10:41:40;;;;;;;2.53;2.20;;;;;;;;;;4971952;28;20214;-85
2023/06/23 10:44:07;;;;;;;2.47;2.28;;;;;;;;;;4972428;28;20186;-86
2023/06/23 10:46:35;;;;;;;2.20;2.00;;;;;;;;;;4971851;28;20276;-85
2023/06/23 10:49:04;;;;;;;1.98;1.88;;;;;;;;;;4971590;28;20245;-88
2023/06/23 10:51:32;;;;;;;2.30;2.10;;;;;;;;;;4953408;28;20547;-84
2023/06/23 10:54:00;;;;;;;5.07;2.85;;;;;;;;;;4952870;28;20222;-82
2023/06/23 10:56:35;;;;;;;2.47;2.30;;;;;;;;;;4952446;28;20210;-83
2023/06/23 10:59:18;;;;;;;2.45;2.25;;;;;;;;;;4961853;28;20221;-84
2023/06/23 11:02:04;;;;;;;3.00;2.13;;;;;;;;;;4961187;28;20651;-87
2023/06/23 11:04:32;;;;;;;2.50;2.30;;;;;;;;;;4961613;28;20223;-88
2023/06/23 11:07:03;;;;;;;3.53;2.30;;;;;;;;;;4962634;28;20256;-87
2023/06/23 11:09:52;;;;;;;3.92;2.28;;;;;;;;;;4965283;28;20194;-87
2023/06/23 11:12:43;;;;;;;2.20;2.00;;;;;;;;;;4963413;28;20230;-83
2023/06/23 11:15:12;;;;;;;2.47;2.17;;;;;;;;;;4968953;28;20751;-83
2023/06/23 11:17:43;;;;;;;3.08;2.17;;;;;;;;;;4962570;28;20212;-82
2023/06/23 11:20:11;;;;;;;2.97;2.28;;;;;;;;;;4968093;28;20242;-83
2023/06/23 11:22:40;;;;;;;2.80;2.60;;;;;;;;;;4959295;28;20211;-82
2023/06/23 11:25:08;;;;;;;2.60;2.40;;;;;;;;;;4962345;28;20206;-80
2023/06/23 11:27:37;;;;;;;2.80;2.40;;;;;;;;;;4958289;28;21005;-82
2023/06/23 11:30:16;;;;;;;3.55;2.55;;;;;;;;;;4971478;28;20292;-82
2023/06/23 11:32:44;;;;;;;2.92;2.63;;;;;;;;;;4973704;28;20198;-82
2023/06/23 11:35:11;;;;;;;2.70;2.50;;;;;;;;;;4968853;28;20713;-82
2023/06/23 11:37:39;;;;;;;2.60;2.40;;;;;;;;;;4960729;28;20238;-82
2023/06/23 11:40:08;;;;;;;2.72;2.40;;;;;;;;;;4968217;28;20258;-83
2023/06/23 11:42:45;;;;;;;3.35;2.40;;;;;;;;;;4964396;28;20218;-83
2023/06/23 11:45:12;;;;;;;2.30;2.10;;;;;;;;;;4963865;28;20198;-82
2023/06/23 11:47:39;;;;;;;2.85;2.60;;;;;;;;;;4969390;28;20317;-83
2023/06/23 11:50:10;;;;;;;2.55;2.33;;;;;;;;;;4972228;28;20195;-82
2023/06/23 11:52:37;;;;;;;2.50;2.30;;;;;;;;;;4957675;28;20226;-82
2023/06/23 11:55:06;;;;;;;2.72;2.45;;;;;;;;;;4965868;28;20199;-81
2023/06/23 11:57:33;;;;;;;3.03;2.08;;;;;;;;;;4963606;28;20250;-82
2023/06/23 12:00:05;;;;;;;2.63;2.20;;;;;;;;;;4965293;28;20270;-85
2023/06/23 12:02:32;;;;;;;2.78;2.45;;;;;;;;;;4967809;28;20308;-85
2023/06/23 12:04:59;;;;;;;2.30;2.20;;;;;;;;;;4966570;28;20241;-84
2023/06/23 12:07:30;;;;;;;2.70;2.50;;;;;;;;;;4964216;28;20222;-84
2023/06/23 12:09:57;;;;;;;3.30;2.30;;;;;;;;;;4965573;28;20202;-84
2023/06/23 12:12:24;;;;;;;3.53;2.20;;;;;;;;;;4964182;28;20281;-85
2023/06/23 12:14:59;;;;;;;4.50;2.40;;;;;;;;;;4962998;28;20229;-84
2023/06/23 12:17:28;;;;;;;2.30;2.10;;;;;;;;;;4993793;28;20693;-83
2023/06/23 12:19:55;;;;;;;2.40;2.10;;;;;;;;;;4993970;28;20678;-83
2023/06/23 12:22:22;;;;;;;3.03;2.20;;;;;;;;;;4994021;28;20215;-84
2023/06/23 12:24:50;;;;;;;3.45;2.40;;;;;;;;;;4990700;28;20633;-84
2023/06/23 12:27:18;;;;;;;2.65;2.45;;;;;;;;;;4965362;28;20304;-83
2023/06/23 12:29:45;;;;;;;2.90;2.60;;;;;;;;;;4963953;28;20209;-84
2023/06/23 12:32:12;;;;;;;2.53;2.33;;;;;;;;;;4962999;28;20329;-84
2023/06/23 12:34:45;;;;;;;3.28;2.67;;;;;;;;;;4965043;28;20190;-84
2023/06/23 12:37:14;;;;;;;2.60;2.40;;;;;;;;;;4964857;28;20202;-84
2023/06/23 12:39:41;;;;;;;2.50;2.30;;;;;;;;;;4961574;28;20617;-84
2023/06/23 12:42:09;;;;;;;3.05;2.80;;;;;;;;;;4963789;28;20285;-84
2023/06/23 12:44:36;;;;;;;2.55;2.35;;;;;;;;;;4964722;28;20194;-84
2023/06/23 12:47:04;;;;;;;4.38;2.53;;;;;;;;;;4963412;28;20698;-84
2023/06/23 12:49:32;;;;;;;2.58;2.38;;;;;;;;;;4963145;28;20194;-83
2023/06/23 12:52:01;;;;;;;2.90;2.70;;;;;;;;;;4965609;28;20682;-83
2023/06/23 12:54:28;;;;;;;3.15;2.90;;;;;;;;;;4962891;28;20281;-83
2023/06/23 12:56:59;;;;;;;2.67;2.35;;;;;;;;;;4965002;28;20624;-83
2023/06/23 12:59:28;;;;;;;3.17;2.35;;;;;;;;;;4963639;28;20195;-84
2023/06/23 13:01:55;;;;;;;2.60;2.40;;;;;;;;;;4962349;28;20231;-83
2023/06/23 13:04:22;;;;;;;2.90;2.60;;;;;;;;;;4963960;28;20198;-83
2023/06/23 13:06:50;;;;;;;2.75;2.25;;;;;;;;;;4964051;28;20197;-84
2023/06/23 13:09:18;;;;;;;2.63;2.42;;;;;;;;;;4962336;28;20290;-83
2023/06/23 13:11:46;;;;;;;2.35;2.20;;;;;;;;;;4963264;28;20233;-84
2023/06/23 13:14:13;;;;;;;4.03;2.35;;;;;;;;;;4964576;28;20558;-84
2023/06/23 13:16:40;;;;;;;3.10;2.50;;;;;;;;;;4971156;28;20617;-85
2023/06/23 13:19:07;;;;;;;2.50;2.30;;;;;;;;;;4973901;28;20226;-84
2023/06/23 13:21:35;;;;;;;2.15;2.00;;;;;;;;;;4972903;28;20221;-83
2023/06/23 13:24:02;;;;;;;3.00;2.38;;;;;;;;;;4972924;28;20663;-86
2023/06/23 13:26:31;;;;;;;2.63;2.42;;;;;;;;;;4973349;28;20704;-84
2023/06/23 13:28:58;;;;;;;3.50;2.88;;;;;;;;;;4972764;28;20230;-84
2023/06/23 13:31:25;;;;;;;3.25;2.70;;;;;;;;;;4972927;28;20284;-85
2023/06/23 13:33:53;;;;;;;2.83;2.63;;;;;;;;;;4972611;28;20293;-84
2023/06/23 13:36:20;;;;;;;4.90;2.50;;;;;;;;;;4969598;28;20736;-84
2023/06/23 13:38:47;;;;;;;2.80;2.50;;;;;;;;;;4963351;28;20737;-85
2023/06/23 13:41:14;;;;;;;2.67;2.47;;;;;;;;;;4958825;28;20187;-84
2023/06/23 13:43:43;;;;;;;3.15;2.70;;;;;;;;;;4962996;28;20281;-85
2023/06/23 13:46:11;;;;;;;2.67;2.47;;;;;;;;;;4973477;28;20202;-86
2023/06/23 13:48:38;;;;;;;2.55;2.35;;;;;;;;;;4959219;28;21042;-84
2023/06/23 13:51:05;;;;;;;2.05;1.92;;;;;;;;;;4953288;28;20218;-85
2023/06/23 13:53:33;;;;;;;2.40;2.20;;;;;;;;;;4953779;28;20238;-86
2023/06/23 13:56:00;;;;;;;2.55;2.35;;;;;;;;;;4953627;28;20203;-84
2023/06/23 13:58:28;;;;;;;2.97;2.40;;;;;;;;;;4953430;28;20743;-86
2023/06/23 14:00:56;;;;;;;3.08;2.20;;;;;;;;;;4964692;28;20228;-87
2023/06/23 14:03:23;;;;;;;2.60;2.10;;;;;;;;;;4964007;28;20258;-87
2023/06/23 14:05:50;;;;;;;3.00;2.50;;;;;;;;;;4960995;28;20198;-86
2023/06/23 14:08:18;;;;;;;2.80;2.30;;;;;;;;;;4963112;28;20321;-85
2023/06/23 14:10:45;;;;;;;2.67;2.42;;;;;;;;;;4961228;28;20232;-85
2023/06/23 14:13:12;;;;;;;2.75;2.45;;;;;;;;;;4967937;28;20281;-85
2023/06/23 14:15:39;;;;;;;2.58;2.38;;;;;;;;;;4961440;28;20209;-85
2023/06/23 14:18:08;;;;;;;3.05;2.65;;;;;;;;;;4961367;28;20306;-85
2023/06/23 14:20:35;;;;;;;2.33;2.10;;;;;;;;;;4960224;28;20203;-86
2023/06/23 14:23:02;;;;;;;2.50;2.30;;;;;;;;;;4962994;28;20205;-88
2023/06/23 14:25:30;;;;;;;4.72;2.50;;;;;;;;;;4961303;28;20299;-86
2023/06/23 14:27:57;;;;;;;3.25;2.35;;;;;;;;;;4962721;28;20933;-85
2023/06/23 14:30:24;;;;;;;2.50;2.30;;;;;;;;;;4963195;28;20212;-86
2023/06/23 14:32:52;;;;;;;3.03;2.42;;;;;;;;;;4953035;28;20711;-87
2023/06/23 14:35:21;;;;;;;2.40;2.20;;;;;;;;;;4961516;28;20248;-85
2023/06/23 14:37:48;;;;;;;2.70;2.50;;;;;;;;;;4965764;28;20202;-85
2023/06/23 14:40:15;;;;;;;2.80;2.35;;;;;;;;;;4960097;28;20234;-85
2023/06/23 14:42:43;;;;;;;2.28;2.10;;;;;;;;;;4955584;28;20195;-86
2023/06/23 14:45:10;;;;;;;2.15;1.95;;;;;;;;;;4963100;28;20802;-87
2023/06/23 14:47:39;;;;;;;3.08;2.03;;;;;;;;;;4959066;28;20261;-88
2023/06/23 14:50:08;;;;;;;3.00;2.50;;;;;;;;;;4958575;28;20203;-85
2023/06/23 14:52:37;;;;;;;2.50;2.30;;;;;;;;;;4953585;29;20290;-89
2023/06/23 14:55:04;;;;;;;2.42;2.22;;;;;;;;;;4954197;29;20195;-86
2023/06/23 14:57:32;;;;;;;2.45;2.25;;;;;;;;;;4953872;28;20199;-89
2023/06/23 14:59:59;;;;;;;2.60;2.40;;;;;;;;;;4964167;28;20925;-86
2023/06/23 15:02:28;;;;;;;4.13;2.60;;;;;;;;;;4962135;28;20252;-86
2023/06/23 15:04:55;;;;;;;2.60;2.30;;;;;;;;;;4966859;28;20204;-85
2023/06/23 15:07:22;;;;;;;2.75;2.55;;;;;;;;;;4969325;28;20353;-88
2023/06/23 15:09:51;;;;;;;2.97;2.55;;;;;;;;;;4966254;28;20199;-86